Chiang Mai, Thailand
Current Conditions -  °F | °C
As of 12:30 PM on Tuesday 27 Jan 2015 (Local Time) from VTCC Reporting Station
Few Clouds Few Clouds  
Wind Chill: 81°   Ceiling: Unl
Heat Index: 81°   Visibility: 6mi
Dew Point: 55°   Wind: 3mph
Humidity: 42%   Direction: 50°NE
Pressure: 30.03"   Gusts: NA
Location:  18.8°N, 98.98°E
Report Text: VTCC 270530Z 05003KT 9999 FEW040 27/13 Q1017 A3003 NOSIG
Loading
Personal Weather Stations






























Interactive Weather Map New forecast layout! Learn more

10-Day Weather Forecast

Advertisements
Track Severe Weather on mobile